WetterOnline ( https://www.wetteronline.at )

Wetter aktuell Hoyerswerda

Aktuelles Wetter: Hoyerswerda (116m)

6-stündlich | Neueste Meldungen
Ortszeit Temperatur Wetter
Fr, 19.07. 2:00 17.3° C bewölkt
Do, 18.07. 20:00 25.0° C leicht bewölkt
Do, 18.07. 14:00 25.6° C wolkig
Do, 18.07. 8:00 17.8° C wolkenlos
Do, 18.07. 2:00 11.2° C wolkenlos
Mi, 17.07. 20:00 22.2° C leicht bewölkt
Mi, 17.07. 14:00 21.2° C wolkig
Mi, 17.07. 8:00 14.0° C bewölkt
Ortszeit Temperatur Wetter
Fr, 19.07. 5:00 16.7° C bedeckt
Fr, 19.07. 4:50 16.7° C bedeckt
Fr, 19.07. 4:40 16.8° C wolkig
Fr, 19.07. 4:30 16.1° C bewölkt
Fr, 19.07. 4:20 16.1° C bewölkt
Fr, 19.07. 4:10 15.8° C wolkig
Fr, 19.07. 4:00 15.0° C bedeckt
Fr, 19.07. 3:30 15.5° C bedeckt
Fr, 19.07. 3:00 15.4° C bedeckt
Fr, 19.07. 2:30 16.0° C bedeckt
Fr, 19.07. 2:00 17.3° C bewölkt
Ortszeit Relative Feuchte Sichtweite
Fr, 19.07. 2:00 72% 30 km
Do, 18.07. 20:00 37% 65 km
Do, 18.07. 14:00 34% 50 km
Do, 18.07. 8:00 67% 35 km
Do, 18.07. 2:00 95% 19 km
Mi, 17.07. 20:00 42% 70 km
Mi, 17.07. 14:00 48% 55 km
Mi, 17.07. 8:00 87% 14 km
Ortszeit Relative Feuchte Sichtweite
Fr, 19.07. 5:00 73% 29 km
Fr, 19.07. 4:50 73% -
Fr, 19.07. 4:40 73% -
Fr, 19.07. 4:30 77% 26 km
Fr, 19.07. 4:20 77% -
Fr, 19.07. 4:10 78% -
Fr, 19.07. 4:00 82% 25 km
Fr, 19.07. 3:30 80% 28 km
Fr, 19.07. 3:00 82% 27 km
Fr, 19.07. 2:30 79% 27 km
Fr, 19.07. 2:00 72% 30 km
Ortszeit Niederschlagsmenge Niederschlagsart
Fr, 19.07. 2:00 0.0 l/m2 in 6 Std. -
Do, 18.07. 20:00 0.1 l/m2 in 12 Std. Niederschlag
Do, 18.07. 14:00 0.0 l/m2 in 6 Std. -
Do, 18.07. 8:00 0.0 l/m2 in 12 Std. -
Do, 18.07. 2:00 0.0 l/m2 in 6 Std. -
Mi, 17.07. 20:00 0.0 l/m2 in 12 Std. -
Mi, 17.07. 14:00 0.0 l/m2 in 6 Std. -
Mi, 17.07. 8:00 0.0 l/m2 in 12 Std. -
Ortszeit Niederschlagsmenge Niederschlagsart
Fr, 19.07. 5:00 0.0 l/m2 in 1 Std. -
Fr, 19.07. 4:50 keine Meldung -
Fr, 19.07. 4:40 keine Meldung -
Fr, 19.07. 4:30 0.0 l/m2 in 1 Std. -
Fr, 19.07. 4:20 keine Meldung -
Fr, 19.07. 4:10 keine Meldung -
Fr, 19.07. 4:00 0.0 l/m2 in 1 Std. -
Fr, 19.07. 3:30 0.0 l/m2 in 1 Std. -
Fr, 19.07. 3:00 0.0 l/m2 in 1 Std. -
Fr, 19.07. 2:30 0.0 l/m2 in 1 Std. -
Fr, 19.07. 2:00 0.0 l/m2 in 1 Std. -
Ortszeit Stärke Spitze Richtung
km/h Bft. km/h Grad Sektor
Fr, 19.07. 2:00 6 1 15 170° S
Do, 18.07. 20:00 7 2 22 80° O
Do, 18.07. 14:00 4 1 22 70° O
Do, 18.07. 8:00 0 0 7 - -
Do, 18.07. 2:00 2 1 9 170° S
Mi, 17.07. 20:00 6 1 39 340° N
Mi, 17.07. 14:00 7 2 25 320° NW
Mi, 17.07. 8:00 15 3 24 290° W
Ortszeit Stärke Spitze Richtung
km/h Bft. km/h Grad Sektor
Fr, 19.07. 5:00 4 1 7 180° S
Fr, 19.07. 4:50 4 1 - 180° S
Fr, 19.07. 4:40 6 1 - 180° S
Fr, 19.07. 4:30 4 1 7 180° S
Fr, 19.07. 4:20 4 1 - 180° S
Fr, 19.07. 4:10 6 1 - 180° S
Fr, 19.07. 4:00 4 1 7 180° S
Fr, 19.07. 3:30 6 1 7 170° S
Fr, 19.07. 3:00 6 1 7 170° S
Fr, 19.07. 2:30 6 1 7 170° S
Fr, 19.07. 2:00 6 1 13 170° S
Ortszeit Untergrenze Bedeckung Gattung
total tief tief mittel hoch
Fr, 19.07. 2:00 5100 m 8/8 7/8 - - -
Do, 18.07. 20:00 9000 m 6/8 0/8 - - -
Do, 18.07. 14:00 2100 m 6/8 6/8 - - -
Do, 18.07. 8:00 - 0/8 0/8 - - -
Do, 18.07. 2:00 8400 m 0/8 0/8 - - -
Mi, 17.07. 20:00 7200 m 7/8 0/8 - - -
Mi, 17.07. 14:00 1440 m 6/8 3/8 - - -
Mi, 17.07. 8:00 270 m 7/8 7/8 - - -
Ortszeit Bedeckungsgrad in Achtel und Wolkenuntergrenze
Fr, 19.07. 5:00 6(3300m) 8(4200m)
Fr, 19.07. 4:50 6(3300m) 8(4200m)
Fr, 19.07. 4:40 2(2400m) 8(3900m) 8(4500m)
Fr, 19.07. 4:30 4(2700m) 8(3900m) 8(5400m)
Fr, 19.07. 4:20 4(2700m) 8(3900m) 8(5400m)
Fr, 19.07. 4:10 3(2700m) 8(6000m) 8(9000m)
Fr, 19.07. 4:00 3(3900m) 8(6300m) 8(8100m)
Fr, 19.07. 3:30 1(4800m) 8(6900m) 8(9000m)
Fr, 19.07. 3:00 8(4800m) 8(5400m) 8(6900m)
Fr, 19.07. 2:30 8(4200m) 8(4800m) 8(7500m)
Fr, 19.07. 2:00 7(5100m) 8(7800m) 8(10500m)
Ortszeit Luftdruck NN (hPa) Tendenz (hPa in 3 Std.)
Fr, 19.07. 2:00 1012 + 0,3
Do, 18.07. 20:00 1011 - 0,3
Do, 18.07. 14:00 1012 - 0,8
Do, 18.07. 8:00 1013 0,0
Do, 18.07. 2:00 1014 + 0,2
Mi, 17.07. 20:00 1013 - 0,7
Mi, 17.07. 14:00 1014 - 0,6
Mi, 17.07. 8:00 1015 + 0,1
Ortszeit Luftdruck NN (hPa) Tendenz (hPa in 3 Std.)
Fr, 19.07. 5:00 1012 0,0
Fr, 19.07. 4:50 1012 keine Meldung
Fr, 19.07. 4:40 1012 keine Meldung
Fr, 19.07. 4:30 1012 0,0
Fr, 19.07. 4:20 1012 keine Meldung
Fr, 19.07. 4:10 1012 keine Meldung
Fr, 19.07. 4:00 1012 + 0,2
Fr, 19.07. 3:30 1012 + 0,2
Fr, 19.07. 3:00 1012 + 0,3
Fr, 19.07. 2:30 1012 + 0,3
Fr, 19.07. 2:00 1012 + 0,3
Ortszeit Schneehöhe (cm)
Fr, 19.07. 2:00 -
Do, 18.07. 20:00 -
Do, 18.07. 14:00 -
Do, 18.07. 8:00 -
Do, 18.07. 2:00 -
Mi, 17.07. 20:00 -
Mi, 17.07. 14:00 -
Mi, 17.07. 8:00 -
Ortszeit Schneehöhe (cm)
Fr, 19.07. 5:00 -
Fr, 19.07. 4:50 -
Fr, 19.07. 4:40 -
Fr, 19.07. 4:30 -
Fr, 19.07. 4:20 -
Fr, 19.07. 4:10 -
Fr, 19.07. 4:00 -
Fr, 19.07. 3:30 -
Fr, 19.07. 3:00 -
Fr, 19.07. 2:30 -
Fr, 19.07. 2:00 -
Link zu dieser Seite / Seite empfehlen

Das Wetter in ...